sensor_id;sensor_type;location;lat;lon;timestamp;P1;durP1;ratioP1;P2;durP2;ratioP2
6029;SDS011;3043;42.682;23.376;2023-03-23T00:00:57;42.87;;;27.97;;
6029;SDS011;3043;42.682;23.376;2023-03-23T00:03:23;47.37;;;29.77;;
6029;SDS011;3043;42.682;23.376;2023-03-23T00:05:51;51.20;;;31.47;;
6029;SDS011;3043;42.682;23.376;2023-03-23T00:08:19;43.23;;;29.43;;
6029;SDS011;3043;42.682;23.376;2023-03-23T00:10:50;47.33;;;31.67;;
6029;SDS011;3043;42.682;23.376;2023-03-23T00:13:17;41.77;;;27.90;;
6029;SDS011;3043;42.682;23.376;2023-03-23T00:15:46;43.00;;;28.90;;
6029;SDS011;3043;42.682;23.376;2023-03-23T00:18:14;40.63;;;26.43;;
6029;SDS011;3043;42.682;23.376;2023-03-23T00:20:50;39.33;;;26.47;;
6029;SDS011;3043;42.682;23.376;2023-03-23T00:23:21;41.00;;;26.90;;
6029;SDS011;3043;42.682;23.376;2023-03-23T00:25:50;41.53;;;27.97;;
6029;SDS011;3043;42.682;23.376;2023-03-23T00:28:18;45.07;;;28.30;;
6029;SDS011;3043;42.682;23.376;2023-03-23T00:31:00;53.13;;;30.17;;
6029;SDS011;3043;42.682;23.376;2023-03-23T00:33:28;45.60;;;30.67;;
6029;SDS011;3043;42.682;23.376;2023-03-23T00:35:58;46.17;;;29.20;;
6029;SDS011;3043;42.682;23.376;2023-03-23T00:38:24;60.47;;;29.03;;
6029;SDS011;3043;42.682;23.376;2023-03-23T00:40:50;64.60;;;31.97;;
6029;SDS011;3043;42.682;23.376;2023-03-23T00:43:17;91.00;;;36.23;;
6029;SDS011;3043;42.682;23.376;2023-03-23T00:45:43;61.63;;;37.40;;
6029;SDS011;3043;42.682;23.376;2023-03-23T00:48:14;56.87;;;33.73;;
6029;SDS011;3043;42.682;23.376;2023-03-23T00:50:40;54.83;;;34.77;;
6029;SDS011;3043;42.682;23.376;2023-03-23T00:53:05;59.40;;;35.57;;
6029;SDS011;3043;42.682;23.376;2023-03-23T00:55:31;59.97;;;33.70;;
6029;SDS011;3043;42.682;23.376;2023-03-23T00:57:58;50.77;;;32.83;;
6029;SDS011;3043;42.682;23.376;2023-03-23T01:00:24;57.33;;;34.47;;
6029;SDS011;3043;42.682;23.376;2023-03-23T01:02:50;50.10;;;32.30;;
6029;SDS011;3043;42.682;23.376;2023-03-23T01:05:18;49.00;;;32.13;;
6029;SDS011;3043;42.682;23.376;2023-03-23T01:07:44;51.53;;;31.70;;
6029;SDS011;3043;42.682;23.376;2023-03-23T01:10:10;70.00;;;31.27;;
6029;SDS011;3043;42.682;23.376;2023-03-23T01:12:40;57.17;;;29.40;;
6029;SDS011;3043;42.682;23.376;2023-03-23T01:15:06;56.00;;;30.30;;
6029;SDS011;3043;42.682;23.376;2023-03-23T01:17:31;61.77;;;31.17;;
6029;SDS011;3043;42.682;23.376;2023-03-23T01:19:57;64.17;;;31.73;;
6029;SDS011;3043;42.682;23.376;2023-03-23T01:22:22;70.80;;;32.23;;
6029;SDS011;3043;42.682;23.376;2023-03-23T01:24:48;76.73;;;31.83;;
6029;SDS011;3043;42.682;23.376;2023-03-23T01:27:13;61.33;;;30.97;;
6029;SDS011;3043;42.682;23.376;2023-03-23T01:29:39;52.47;;;32.03;;
6029;SDS011;3043;42.682;23.376;2023-03-23T01:32:05;49.37;;;31.20;;
6029;SDS011;3043;42.682;23.376;2023-03-23T01:34:30;52.80;;;33.00;;
6029;SDS011;3043;42.682;23.376;2023-03-23T01:36:56;50.70;;;31.40;;
6029;SDS011;3043;42.682;23.376;2023-03-23T01:39:22;59.50;;;33.90;;
6029;SDS011;3043;42.682;23.376;2023-03-23T01:41:47;52.57;;;32.43;;
6029;SDS011;3043;42.682;23.376;2023-03-23T01:46:41;52.13;;;31.43;;
6029;SDS011;3043;42.682;23.376;2023-03-23T01:49:09;52.33;;;30.13;;
6029;SDS011;3043;42.682;23.376;2023-03-23T01:51:53;55.40;;;31.83;;
6029;SDS011;3043;42.682;23.376;2023-03-23T01:54:21;51.33;;;31.50;;
6029;SDS011;3043;42.682;23.376;2023-03-23T01:56:52;51.27;;;32.10;;
6029;SDS011;3043;42.682;23.376;2023-03-23T01:59:22;52.13;;;32.57;;
6029;SDS011;3043;42.682;23.376;2023-03-23T02:01:50;52.63;;;31.40;;
6029;SDS011;3043;42.682;23.376;2023-03-23T02:04:18;52.60;;;31.97;;
6029;SDS011;3043;42.682;23.376;2023-03-23T02:06:45;57.00;;;32.57;;
6029;SDS011;3043;42.682;23.376;2023-03-23T02:09:11;50.13;;;30.83;;
6029;SDS011;3043;42.682;23.376;2023-03-23T02:11:42;62.43;;;35.43;;
6029;SDS011;3043;42.682;23.376;2023-03-23T02:14:08;69.27;;;39.60;;
6029;SDS011;3043;42.682;23.376;2023-03-23T02:16:43;67.37;;;37.83;;
6029;SDS011;3043;42.682;23.376;2023-03-23T02:26:57;65.33;;;38.63;;
6029;SDS011;3043;42.682;23.376;2023-03-23T02:30:11;60.60;;;36.27;;
6029;SDS011;3043;42.682;23.376;2023-03-23T02:32:13;63.63;;;37.07;;
6029;SDS011;3043;42.682;23.376;2023-03-23T02:34:49;58.27;;;35.30;;
6029;SDS011;3043;42.682;23.376;2023-03-23T02:37:23;64.90;;;37.90;;
6029;SDS011;3043;42.682;23.376;2023-03-23T02:39:54;73.50;;;41.57;;
6029;SDS011;3043;42.682;23.376;2023-03-23T02:42:26;83.17;;;43.03;;
6029;SDS011;3043;42.682;23.376;2023-03-23T02:44:56;86.10;;;45.13;;
6029;SDS011;3043;42.682;23.376;2023-03-23T02:47:28;102.50;;;46.83;;
6029;SDS011;3043;42.682;23.376;2023-03-23T02:49:55;71.50;;;40.97;;
6029;SDS011;3043;42.682;23.376;2023-03-23T02:52:33;59.23;;;37.33;;
6029;SDS011;3043;42.682;23.376;2023-03-23T02:55:01;59.43;;;37.30;;
6029;SDS011;3043;42.682;23.376;2023-03-23T02:57:29;112.53;;;35.83;;
6029;SDS011;3043;42.682;23.376;2023-03-23T02:59:56;102.63;;;33.30;;
6029;SDS011;3043;42.682;23.376;2023-03-23T03:04:59;52.17;;;30.53;;
6029;SDS011;3043;42.682;23.376;2023-03-23T03:12:56;128.33;;;34.17;;
6029;SDS011;3043;42.682;23.376;2023-03-23T03:15:37;80.90;;;31.33;;
6029;SDS011;3043;42.682;23.376;2023-03-23T03:18:13;72.97;;;27.60;;
6029;SDS011;3043;42.682;23.376;2023-03-23T03:20:54;41.07;;;27.30;;
6029;SDS011;3043;42.682;23.376;2023-03-23T03:23:24;50.87;;;31.83;;
6029;SDS011;3043;42.682;23.376;2023-03-23T03:25:52;58.20;;;35.53;;
6029;SDS011;3043;42.682;23.376;2023-03-23T03:28:22;52.47;;;31.17;;
6029;SDS011;3043;42.682;23.376;2023-03-23T03:30:55;46.23;;;31.87;;
6029;SDS011;3043;42.682;23.376;2023-03-23T03:33:25;71.40;;;34.37;;
6029;SDS011;3043;42.682;23.376;2023-03-23T03:35:56;48.43;;;31.60;;
6029;SDS011;3043;42.682;23.376;2023-03-23T03:38:23;51.20;;;31.53;;
6029;SDS011;3043;42.682;23.376;2023-03-23T03:40:49;48.23;;;30.43;;
6029;SDS011;3043;42.682;23.376;2023-03-23T03:43:15;51.37;;;33.07;;
6029;SDS011;3043;42.682;23.376;2023-03-23T03:45:41;49.47;;;32.50;;
6029;SDS011;3043;42.682;23.376;2023-03-23T03:48:07;56.23;;;33.17;;
6029;SDS011;3043;42.682;23.376;2023-03-23T03:50:33;51.90;;;30.17;;
6029;SDS011;3043;42.682;23.376;2023-03-23T03:52:58;46.30;;;30.00;;
6029;SDS011;3043;42.682;23.376;2023-03-23T03:55:24;46.77;;;28.37;;
6029;SDS011;3043;42.682;23.376;2023-03-23T03:57:49;47.83;;;30.73;;
6029;SDS011;3043;42.682;23.376;2023-03-23T04:00:15;45.17;;;29.97;;
6029;SDS011;3043;42.682;23.376;2023-03-23T04:02:42;61.40;;;41.67;;
6029;SDS011;3043;42.682;23.376;2023-03-23T04:05:09;53.90;;;41.27;;
6029;SDS011;3043;42.682;23.376;2023-03-23T04:07:36;50.60;;;34.17;;
6029;SDS011;3043;42.682;23.376;2023-03-23T04:10:03;49.63;;;36.83;;
6029;SDS011;3043;42.682;23.376;2023-03-23T04:12:32;51.83;;;34.33;;
6029;SDS011;3043;42.682;23.376;2023-03-23T04:14:59;42.83;;;29.07;;
6029;SDS011;3043;42.682;23.376;2023-03-23T04:17:24;49.60;;;32.17;;
6029;SDS011;3043;42.682;23.376;2023-03-23T04:19:51;50.10;;;32.87;;
6029;SDS011;3043;42.682;23.376;2023-03-23T04:22:17;52.33;;;34.93;;
6029;SDS011;3043;42.682;23.376;2023-03-23T04:24:42;52.30;;;34.97;;
6029;SDS011;3043;42.682;23.376;2023-03-23T04:27:08;52.93;;;34.40;;
6029;SDS011;3043;42.682;23.376;2023-03-23T04:29:33;45.97;;;30.73;;
6029;SDS011;3043;42.682;23.376;2023-03-23T04:31:59;45.13;;;29.20;;
6029;SDS011;3043;42.682;23.376;2023-03-23T04:34:26;47.53;;;33.90;;
6029;SDS011;3043;42.682;23.376;2023-03-23T04:36:52;45.60;;;32.27;;
6029;SDS011;3043;42.682;23.376;2023-03-23T04:39:18;47.50;;;33.17;;
6029;SDS011;3043;42.682;23.376;2023-03-23T04:41:44;40.67;;;29.20;;
6029;SDS011;3043;42.682;23.376;2023-03-23T04:44:11;39.57;;;26.07;;
6029;SDS011;3043;42.682;23.376;2023-03-23T04:46:42;36.67;;;24.90;;
6029;SDS011;3043;42.682;23.376;2023-03-23T04:49:10;37.10;;;23.17;;
6029;SDS011;3043;42.682;23.376;2023-03-23T04:51:36;30.33;;;20.03;;
6029;SDS011;3043;42.682;23.376;2023-03-23T04:54:01;30.20;;;20.33;;
6029;SDS011;3043;42.682;23.376;2023-03-23T04:56:27;30.53;;;19.27;;
6029;SDS011;3043;42.682;23.376;2023-03-23T04:58:52;30.63;;;21.07;;
6029;SDS011;3043;42.682;23.376;2023-03-23T05:01:18;30.77;;;19.70;;
6029;SDS011;3043;42.682;23.376;2023-03-23T05:03:43;31.47;;;20.13;;
6029;SDS011;3043;42.682;23.376;2023-03-23T05:06:09;27.87;;;19.13;;
6029;SDS011;3043;42.682;23.376;2023-03-23T05:08:35;29.17;;;18.70;;
6029;SDS011;3043;42.682;23.376;2023-03-23T05:11:04;32.20;;;19.87;;
6029;SDS011;3043;42.682;23.376;2023-03-23T05:13:30;28.87;;;20.53;;
6029;SDS011;3043;42.682;23.376;2023-03-23T05:15:56;28.97;;;19.60;;
6029;SDS011;3043;42.682;23.376;2023-03-23T05:18:22;32.70;;;19.43;;
6029;SDS011;3043;42.682;23.376;2023-03-23T05:20:48;25.80;;;18.67;;
6029;SDS011;3043;42.682;23.376;2023-03-23T05:23:14;32.67;;;21.23;;
6029;SDS011;3043;42.682;23.376;2023-03-23T05:25:40;31.20;;;18.50;;
6029;SDS011;3043;42.682;23.376;2023-03-23T05:28:06;30.30;;;20.67;;
6029;SDS011;3043;42.682;23.376;2023-03-23T05:30:33;30.07;;;19.20;;
6029;SDS011;3043;42.682;23.376;2023-03-23T05:32:59;30.70;;;20.67;;
6029;SDS011;3043;42.682;23.376;2023-03-23T05:35:25;28.33;;;19.33;;
6029;SDS011;3043;42.682;23.376;2023-03-23T05:37:50;28.67;;;18.67;;
6029;SDS011;3043;42.682;23.376;2023-03-23T05:40:18;26.33;;;18.83;;
6029;SDS011;3043;42.682;23.376;2023-03-23T05:42:45;31.67;;;20.33;;
6029;SDS011;3043;42.682;23.376;2023-03-23T05:45:11;30.47;;;20.27;;
6029;SDS011;3043;42.682;23.376;2023-03-23T05:47:37;27.77;;;18.93;;
6029;SDS011;3043;42.682;23.376;2023-03-23T05:50:07;30.67;;;20.47;;
6029;SDS011;3043;42.682;23.376;2023-03-23T05:52:34;30.70;;;19.53;;
6029;SDS011;3043;42.682;23.376;2023-03-23T05:55:00;28.07;;;19.90;;
6029;SDS011;3043;42.682;23.376;2023-03-23T05:57:26;32.97;;;21.00;;
6029;SDS011;3043;42.682;23.376;2023-03-23T05:59:52;27.87;;;20.93;;
6029;SDS011;3043;42.682;23.376;2023-03-23T06:02:18;29.17;;;21.37;;
6029;SDS011;3043;42.682;23.376;2023-03-23T06:04:43;29.30;;;20.60;;
6029;SDS011;3043;42.682;23.376;2023-03-23T06:07:10;27.57;;;19.93;;
6029;SDS011;3043;42.682;23.376;2023-03-23T06:09:38;28.30;;;19.57;;
6029;SDS011;3043;42.682;23.376;2023-03-23T06:12:04;29.53;;;20.97;;
6029;SDS011;3043;42.682;23.376;2023-03-23T06:14:30;29.93;;;20.07;;
6029;SDS011;3043;42.682;23.376;2023-03-23T06:16:56;31.93;;;20.60;;
6029;SDS011;3043;42.682;23.376;2023-03-23T06:19:22;26.57;;;19.07;;
6029;SDS011;3043;42.682;23.376;2023-03-23T06:21:48;27.80;;;20.03;;
6029;SDS011;3043;42.682;23.376;2023-03-23T06:24:13;25.50;;;19.07;;
6029;SDS011;3043;42.682;23.376;2023-03-23T06:26:39;26.30;;;19.80;;
6029;SDS011;3043;42.682;23.376;2023-03-23T06:29:06;28.00;;;20.00;;
6029;SDS011;3043;42.682;23.376;2023-03-23T06:31:46;27.57;;;22.13;;
6029;SDS011;3043;42.682;23.376;2023-03-23T06:34:13;33.80;;;25.37;;
6029;SDS011;3043;42.682;23.376;2023-03-23T06:36:39;33.40;;;26.70;;
6029;SDS011;3043;42.682;23.376;2023-03-23T06:39:05;29.50;;;24.37;;
6029;SDS011;3043;42.682;23.376;2023-03-23T06:41:31;31.97;;;24.50;;
6029;SDS011;3043;42.682;23.376;2023-03-23T06:43:57;33.77;;;24.83;;
6029;SDS011;3043;42.682;23.376;2023-03-23T06:46:23;33.00;;;26.80;;
6029;SDS011;3043;42.682;23.376;2023-03-23T06:48:48;35.53;;;26.20;;
6029;SDS011;3043;42.682;23.376;2023-03-23T06:51:15;30.73;;;26.27;;
6029;SDS011;3043;42.682;23.376;2023-03-23T06:53:42;33.03;;;25.90;;
6029;SDS011;3043;42.682;23.376;2023-03-23T06:56:07;34.70;;;26.57;;
6029;SDS011;3043;42.682;23.376;2023-03-23T06:58:33;31.40;;;25.13;;
6029;SDS011;3043;42.682;23.376;2023-03-23T07:00:59;31.17;;;23.23;;
6029;SDS011;3043;42.682;23.376;2023-03-23T07:03:26;28.67;;;25.33;;
6029;SDS011;3043;42.682;23.376;2023-03-23T07:05:53;29.00;;;23.90;;
6029;SDS011;3043;42.682;23.376;2023-03-23T07:08:19;30.83;;;24.87;;
6029;SDS011;3043;42.682;23.376;2023-03-23T07:10:45;30.33;;;24.67;;
6029;SDS011;3043;42.682;23.376;2023-03-23T07:13:11;31.83;;;24.70;;
6029;SDS011;3043;42.682;23.376;2023-03-23T07:15:38;31.33;;;25.53;;
6029;SDS011;3043;42.682;23.376;2023-03-23T07:18:04;29.23;;;23.93;;
6029;SDS011;3043;42.682;23.376;2023-03-23T07:20:29;29.90;;;24.67;;
6029;SDS011;3043;42.682;23.376;2023-03-23T07:22:54;31.53;;;24.53;;
6029;SDS011;3043;42.682;23.376;2023-03-23T07:25:20;28.87;;;24.10;;
6029;SDS011;3043;42.682;23.376;2023-03-23T07:27:45;29.33;;;25.83;;
6029;SDS011;3043;42.682;23.376;2023-03-23T07:30:11;29.77;;;25.27;;
6029;SDS011;3043;42.682;23.376;2023-03-23T07:32:38;30.17;;;25.50;;
6029;SDS011;3043;42.682;23.376;2023-03-23T07:35:03;31.00;;;25.83;;
6029;SDS011;3043;42.682;23.376;2023-03-23T07:37:29;28.63;;;25.53;;
6029;SDS011;3043;42.682;23.376;2023-03-23T07:39:57;30.53;;;25.73;;
6029;SDS011;3043;42.682;23.376;2023-03-23T07:42:22;32.40;;;27.23;;
6029;SDS011;3043;42.682;23.376;2023-03-23T07:44:48;35.50;;;28.17;;
6029;SDS011;3043;42.682;23.376;2023-03-23T07:47:13;35.07;;;28.43;;
6029;SDS011;3043;42.682;23.376;2023-03-23T07:49:39;31.90;;;27.03;;
6029;SDS011;3043;42.682;23.376;2023-03-23T07:52:04;33.53;;;28.40;;
6029;SDS011;3043;42.682;23.376;2023-03-23T07:54:30;34.23;;;28.03;;
6029;SDS011;3043;42.682;23.376;2023-03-23T07:56:55;34.57;;;28.77;;
6029;SDS011;3043;42.682;23.376;2023-03-23T07:59:21;35.50;;;29.03;;
6029;SDS011;3043;42.682;23.376;2023-03-23T08:01:47;33.40;;;27.30;;
6029;SDS011;3043;42.682;23.376;2023-03-23T08:04:12;35.80;;;27.37;;
6029;SDS011;3043;42.682;23.376;2023-03-23T08:06:38;32.03;;;27.33;;
6029;SDS011;3043;42.682;23.376;2023-03-23T08:09:05;32.07;;;25.17;;
6029;SDS011;3043;42.682;23.376;2023-03-23T08:11:34;30.60;;;24.70;;
6029;SDS011;3043;42.682;23.376;2023-03-23T08:14:00;27.77;;;23.33;;
6029;SDS011;3043;42.682;23.376;2023-03-23T08:16:25;28.20;;;23.63;;
6029;SDS011;3043;42.682;23.376;2023-03-23T08:18:51;26.63;;;21.40;;
6029;SDS011;3043;42.682;23.376;2023-03-23T08:21:16;27.37;;;22.20;;
6029;SDS011;3043;42.682;23.376;2023-03-23T08:23:42;22.97;;;19.53;;
6029;SDS011;3043;42.682;23.376;2023-03-23T08:26:08;21.67;;;19.08;;
6029;SDS011;3043;42.682;23.376;2023-03-23T08:28:35;23.15;;;20.40;;
6029;SDS011;3043;42.682;23.376;2023-03-23T08:31:08;22.73;;;20.07;;
6029;SDS011;3043;42.682;23.376;2023-03-23T08:33:35;22.37;;;19.27;;
6029;SDS011;3043;42.682;23.376;2023-03-23T08:36:02;21.00;;;17.90;;
6029;SDS011;3043;42.682;23.376;2023-03-23T08:38:28;19.40;;;17.30;;
6029;SDS011;3043;42.682;23.376;2023-03-23T08:40:58;23.10;;;17.52;;
6029;SDS011;3043;42.682;23.376;2023-03-23T08:43:25;22.35;;;16.60;;
6029;SDS011;3043;42.682;23.376;2023-03-23T08:45:52;21.40;;;16.20;;
6029;SDS011;3043;42.682;23.376;2023-03-23T08:48:18;22.02;;;16.42;;
6029;SDS011;3043;42.682;23.376;2023-03-23T08:50:43;22.13;;;14.77;;
6029;SDS011;3043;42.682;23.376;2023-03-23T08:53:09;24.05;;;17.02;;
6029;SDS011;3043;42.682;23.376;2023-03-23T08:55:36;19.83;;;15.23;;
6029;SDS011;3043;42.682;23.376;2023-03-23T08:58:02;17.02;;;13.57;;
6029;SDS011;3043;42.682;23.376;2023-03-23T09:00:29;21.87;;;14.93;;
6029;SDS011;3043;42.682;23.376;2023-03-23T09:02:55;9.25;;;7.15;;
6029;SDS011;3043;42.682;23.376;2023-03-23T09:05:22;12.63;;;9.60;;
6029;SDS011;3043;42.682;23.376;2023-03-23T09:07:53;18.95;;;15.27;;
6029;SDS011;3043;42.682;23.376;2023-03-23T09:10:20;21.00;;;14.70;;
6029;SDS011;3043;42.682;23.376;2023-03-23T09:12:47;13.10;;;9.48;;
6029;SDS011;3043;42.682;23.376;2023-03-23T09:15:14;13.05;;;9.93;;
6029;SDS011;3043;42.682;23.376;2023-03-23T09:17:45;11.97;;;9.40;;
6029;SDS011;3043;42.682;23.376;2023-03-23T09:20:12;15.63;;;11.47;;
6029;SDS011;3043;42.682;23.376;2023-03-23T09:22:39;10.33;;;7.53;;
6029;SDS011;3043;42.682;23.376;2023-03-23T09:25:09;10.93;;;8.40;;
6029;SDS011;3043;42.682;23.376;2023-03-23T09:27:36;11.30;;;9.00;;
6029;SDS011;3043;42.682;23.376;2023-03-23T09:30:07;11.43;;;9.30;;
6029;SDS011;3043;42.682;23.376;2023-03-23T09:32:36;11.30;;;8.87;;
6029;SDS011;3043;42.682;23.376;2023-03-23T09:35:02;12.47;;;9.43;;
6029;SDS011;3043;42.682;23.376;2023-03-23T09:37:31;11.53;;;8.87;;
6029;SDS011;3043;42.682;23.376;2023-03-23T09:39:57;13.37;;;9.90;;
6029;SDS011;3043;42.682;23.376;2023-03-23T09:45:44;11.60;;;8.70;;
6029;SDS011;3043;42.682;23.376;2023-03-23T09:51:57;13.27;;;9.27;;
6029;SDS011;3043;42.682;23.376;2023-03-23T09:56:55;11.03;;;8.27;;
6029;SDS011;3043;42.682;23.376;2023-03-23T10:02:15;12.37;;;8.90;;
6029;SDS011;3043;42.682;23.376;2023-03-23T10:04:49;12.07;;;9.03;;
6029;SDS011;3043;42.682;23.376;2023-03-23T10:07:20;11.60;;;9.40;;
6029;SDS011;3043;42.682;23.376;2023-03-23T10:09:53;11.17;;;8.30;;
6029;SDS011;3043;42.682;23.376;2023-03-23T10:15:12;10.90;;;8.07;;
6029;SDS011;3043;42.682;23.376;2023-03-23T10:17:49;9.80;;;7.63;;
6029;SDS011;3043;42.682;23.376;2023-03-23T10:20:26;11.63;;;8.47;;
6029;SDS011;3043;42.682;23.376;2023-03-23T10:25:40;11.10;;;8.27;;
6029;SDS011;3043;42.682;23.376;2023-03-23T10:30:56;11.57;;;8.20;;
6029;SDS011;3043;42.682;23.376;2023-03-23T10:35:57;9.87;;;7.67;;
6029;SDS011;3043;42.682;23.376;2023-03-23T10:38:32;12.67;;;8.63;;
6029;SDS011;3043;42.682;23.376;2023-03-23T10:41:00;11.83;;;7.70;;
6029;SDS011;3043;42.682;23.376;2023-03-23T10:43:30;9.77;;;7.37;;
6029;SDS011;3043;42.682;23.376;2023-03-23T10:45:58;10.90;;;7.70;;
6029;SDS011;3043;42.682;23.376;2023-03-23T10:48:29;10.97;;;7.33;;
6029;SDS011;3043;42.682;23.376;2023-03-23T10:50:58;12.07;;;7.60;;
6029;SDS011;3043;42.682;23.376;2023-03-23T10:53:31;9.97;;;7.10;;
6029;SDS011;3043;42.682;23.376;2023-03-23T10:55:59;9.97;;;6.70;;
6029;SDS011;3043;42.682;23.376;2023-03-23T10:58:27;9.73;;;7.37;;
6029;SDS011;3043;42.682;23.376;2023-03-23T11:00:54;14.03;;;9.40;;
6029;SDS011;3043;42.682;23.376;2023-03-23T11:05:59;9.30;;;6.90;;
6029;SDS011;3043;42.682;23.376;2023-03-23T11:08:51;10.50;;;7.40;;
6029;SDS011;3043;42.682;23.376;2023-03-23T11:11:38;10.53;;;7.27;;
6029;SDS011;3043;42.682;23.376;2023-03-23T11:16:54;9.57;;;7.37;;
6029;SDS011;3043;42.682;23.376;2023-03-23T11:19:26;12.37;;;8.67;;
6029;SDS011;3043;42.682;23.376;2023-03-23T11:21:55;10.60;;;8.40;;
6029;SDS011;3043;42.682;23.376;2023-03-23T11:24:25;11.70;;;7.20;;
6029;SDS011;3043;42.682;23.376;2023-03-23T11:26:52;10.10;;;7.63;;
6029;SDS011;3043;42.682;23.376;2023-03-23T11:29:23;10.50;;;7.83;;
6029;SDS011;3043;42.682;23.376;2023-03-23T11:31:51;15.00;;;10.13;;
6029;SDS011;3043;42.682;23.376;2023-03-23T11:34:42;11.87;;;7.50;;
6029;SDS011;3043;42.682;23.376;2023-03-23T11:39:46;10.07;;;7.43;;
6029;SDS011;3043;42.682;23.376;2023-03-23T11:45:14;9.60;;;6.77;;
6029;SDS011;3043;42.682;23.376;2023-03-23T11:50:54;9.63;;;6.57;;
6029;SDS011;3043;42.682;23.376;2023-03-23T11:58:53;10.27;;;8.00;;
6029;SDS011;3043;42.682;23.376;2023-03-23T12:07:52;9.63;;;7.03;;
6029;SDS011;3043;42.682;23.376;2023-03-23T12:26:17;10.53;;;7.10;;
6029;SDS011;3043;42.682;23.376;2023-03-23T12:36:44;10.60;;;7.33;;
6029;SDS011;3043;42.682;23.376;2023-03-23T12:45:37;8.83;;;6.40;;
6029;SDS011;3043;42.682;23.376;2023-03-23T12:48:27;9.87;;;7.17;;
6029;SDS011;3043;42.682;23.376;2023-03-23T12:54:07;9.90;;;6.37;;
6029;SDS011;3043;42.682;23.376;2023-03-23T13:07:46;10.40;;;7.03;;
6029;SDS011;3043;42.682;23.376;2023-03-23T13:10:51;9.93;;;7.03;;
6029;SDS011;3043;42.682;23.376;2023-03-23T13:13:18;10.10;;;7.30;;
6029;SDS011;3043;42.682;23.376;2023-03-23T13:15:50;9.93;;;7.30;;
6029;SDS011;3043;42.682;23.376;2023-03-23T13:21:09;10.10;;;6.83;;
6029;SDS011;3043;42.682;23.376;2023-03-23T13:23:49;10.20;;;6.93;;
6029;SDS011;3043;42.682;23.376;2023-03-23T13:26:19;10.43;;;7.00;;
6029;SDS011;3043;42.682;23.376;2023-03-23T13:31:26;11.27;;;6.70;;
6029;SDS011;3043;42.682;23.376;2023-03-23T13:34:19;9.23;;;6.30;;
6029;SDS011;3043;42.682;23.376;2023-03-23T13:40:14;10.13;;;7.30;;
6029;SDS011;3043;42.682;23.376;2023-03-23T13:42:57;11.20;;;7.07;;
6029;SDS011;3043;42.682;23.376;2023-03-23T13:51:21;11.23;;;6.60;;
6029;SDS011;3043;42.682;23.376;2023-03-23T13:56:41;11.03;;;6.63;;
6029;SDS011;3043;42.682;23.376;2023-03-23T13:59:27;10.80;;;6.57;;
6029;SDS011;3043;42.682;23.376;2023-03-23T14:04:55;9.73;;;6.27;;
6029;SDS011;3043;42.682;23.376;2023-03-23T14:07:21;12.07;;;6.93;;
6029;SDS011;3043;42.682;23.376;2023-03-23T14:09:49;12.27;;;8.93;;
6029;SDS011;3043;42.682;23.376;2023-03-23T14:12:23;11.03;;;7.27;;
6029;SDS011;3043;42.682;23.376;2023-03-23T14:14:56;11.80;;;6.77;;
6029;SDS011;3043;42.682;23.376;2023-03-23T14:17:29;11.00;;;6.90;;
6029;SDS011;3043;42.682;23.376;2023-03-23T14:19:57;9.83;;;6.70;;
6029;SDS011;3043;42.682;23.376;2023-03-23T14:22:27;11.50;;;6.17;;
6029;SDS011;3043;42.682;23.376;2023-03-23T14:25:13;10.73;;;6.63;;
6029;SDS011;3043;42.682;23.376;2023-03-23T14:27:41;9.03;;;6.20;;
6029;SDS011;3043;42.682;23.376;2023-03-23T14:30:08;9.40;;;6.23;;
6029;SDS011;3043;42.682;23.376;2023-03-23T14:32:42;10.50;;;6.57;;
6029;SDS011;3043;42.682;23.376;2023-03-23T14:35:21;8.83;;;6.17;;
6029;SDS011;3043;42.682;23.376;2023-03-23T14:37:51;8.53;;;5.87;;
6029;SDS011;3043;42.682;23.376;2023-03-23T14:40:17;10.37;;;6.67;;
6029;SDS011;3043;42.682;23.376;2023-03-23T14:42:44;10.20;;;6.83;;
6029;SDS011;3043;42.682;23.376;2023-03-23T14:45:12;11.27;;;6.67;;
6029;SDS011;3043;42.682;23.376;2023-03-23T14:48:15;9.60;;;6.83;;
6029;SDS011;3043;42.682;23.376;2023-03-23T14:51:00;9.57;;;6.60;;
6029;SDS011;3043;42.682;23.376;2023-03-23T14:53:39;11.80;;;6.97;;
6029;SDS011;3043;42.682;23.376;2023-03-23T14:56:10;11.20;;;6.53;;
6029;SDS011;3043;42.682;23.376;2023-03-23T14:58:38;8.87;;;6.47;;
6029;SDS011;3043;42.682;23.376;2023-03-23T15:01:12;10.73;;;6.60;;
6029;SDS011;3043;42.682;23.376;2023-03-23T15:04:27;9.27;;;6.90;;
6029;SDS011;3043;42.682;23.376;2023-03-23T15:06:32;12.73;;;7.33;;
6029;SDS011;3043;42.682;23.376;2023-03-23T15:09:03;11.27;;;6.70;;
6029;SDS011;3043;42.682;23.376;2023-03-23T15:11:32;13.07;;;8.13;;
6029;SDS011;3043;42.682;23.376;2023-03-23T15:14:02;10.57;;;7.13;;
6029;SDS011;3043;42.682;23.376;2023-03-23T15:16:34;10.37;;;6.70;;
6029;SDS011;3043;42.682;23.376;2023-03-23T15:19:02;9.00;;;6.50;;
6029;SDS011;3043;42.682;23.376;2023-03-23T15:21:45;9.60;;;6.67;;
6029;SDS011;3043;42.682;23.376;2023-03-23T15:24:27;10.77;;;7.17;;
6029;SDS011;3043;42.682;23.376;2023-03-23T15:26:53;10.10;;;6.43;;
6029;SDS011;3043;42.682;23.376;2023-03-23T15:29:27;8.87;;;6.07;;
6029;SDS011;3043;42.682;23.376;2023-03-23T15:31:53;10.47;;;6.27;;
6029;SDS011;3043;42.682;23.376;2023-03-23T15:34:30;10.77;;;6.07;;
6029;SDS011;3043;42.682;23.376;2023-03-23T15:37:00;9.33;;;6.10;;
6029;SDS011;3043;42.682;23.376;2023-03-23T15:39:28;9.37;;;6.10;;
6029;SDS011;3043;42.682;23.376;2023-03-23T15:41:55;9.20;;;6.20;;
6029;SDS011;3043;42.682;23.376;2023-03-23T15:44:29;11.43;;;6.17;;
6029;SDS011;3043;42.682;23.376;2023-03-23T15:49:41;9.60;;;6.17;;
6029;SDS011;3043;42.682;23.376;2023-03-23T15:52:09;9.63;;;5.93;;
6029;SDS011;3043;42.682;23.376;2023-03-23T15:54:36;8.90;;;6.23;;
6029;SDS011;3043;42.682;23.376;2023-03-23T15:57:02;11.10;;;6.00;;
6029;SDS011;3043;42.682;23.376;2023-03-23T15:59:27;9.67;;;5.70;;
6029;SDS011;3043;42.682;23.376;2023-03-23T16:01:53;9.13;;;6.00;;
6029;SDS011;3043;42.682;23.376;2023-03-23T16:04:19;9.03;;;5.73;;
6029;SDS011;3043;42.682;23.376;2023-03-23T16:06:45;9.67;;;6.13;;
6029;SDS011;3043;42.682;23.376;2023-03-23T16:09:16;10.00;;;6.67;;
6029;SDS011;3043;42.682;23.376;2023-03-23T16:11:44;11.27;;;6.47;;
6029;SDS011;3043;42.682;23.376;2023-03-23T16:14:10;10.07;;;5.63;;
6029;SDS011;3043;42.682;23.376;2023-03-23T16:16:38;12.00;;;7.77;;
6029;SDS011;3043;42.682;23.376;2023-03-23T16:19:03;8.90;;;5.93;;
6029;SDS011;3043;42.682;23.376;2023-03-23T16:21:30;9.97;;;6.43;;
6029;SDS011;3043;42.682;23.376;2023-03-23T16:23:55;10.80;;;7.37;;
6029;SDS011;3043;42.682;23.376;2023-03-23T16:26:21;10.80;;;6.47;;
6029;SDS011;3043;42.682;23.376;2023-03-23T16:28:47;11.60;;;6.30;;
6029;SDS011;3043;42.682;23.376;2023-03-23T16:31:12;9.13;;;6.43;;
6029;SDS011;3043;42.682;23.376;2023-03-23T16:33:38;12.47;;;9.30;;
6029;SDS011;3043;42.682;23.376;2023-03-23T16:36:04;13.70;;;8.47;;
6029;SDS011;3043;42.682;23.376;2023-03-23T16:38:29;11.67;;;6.57;;
6029;SDS011;3043;42.682;23.376;2023-03-23T16:40:55;12.93;;;6.37;;
6029;SDS011;3043;42.682;23.376;2023-03-23T16:43:20;13.37;;;6.93;;
6029;SDS011;3043;42.682;23.376;2023-03-23T16:45:46;14.40;;;7.20;;
6029;SDS011;3043;42.682;23.376;2023-03-23T16:48:13;12.00;;;7.33;;
6029;SDS011;3043;42.682;23.376;2023-03-23T16:50:40;11.00;;;7.83;;
6029;SDS011;3043;42.682;23.376;2023-03-23T16:53:07;20.70;;;13.93;;
6029;SDS011;3043;42.682;23.376;2023-03-23T16:55:34;15.07;;;9.73;;
6029;SDS011;3043;42.682;23.376;2023-03-23T16:58:01;22.33;;;12.47;;
6029;SDS011;3043;42.682;23.376;2023-03-23T17:00:27;19.87;;;10.57;;
6029;SDS011;3043;42.682;23.376;2023-03-23T17:02:54;18.40;;;11.50;;
6029;SDS011;3043;42.682;23.376;2023-03-23T17:05:22;29.00;;;20.83;;